createdAt,value
2023-04-18T00:00:10.309Z,81
2023-04-18T00:00:43.083Z,81
2023-04-18T00:01:15.092Z,81
2023-04-18T00:01:38.683Z,81
2023-04-18T00:02:04.720Z,81
2023-04-18T00:02:35.363Z,81
2023-04-18T00:03:09.710Z,81
2023-04-18T00:03:39.631Z,81
2023-04-18T00:04:09.449Z,81
2023-04-18T00:04:46.570Z,81
2023-04-18T00:05:14.875Z,81
2023-04-18T00:05:37.766Z,81
2023-04-18T00:05:59.881Z,81
2023-04-18T00:06:35.251Z,81
2023-04-18T00:07:06.829Z,81
2023-04-18T00:07:39.221Z,81
2023-04-18T00:08:09.628Z,81
2023-04-18T00:08:44.474Z,81
2023-04-18T00:09:14.872Z,81
2023-04-18T00:09:37.739Z,81
2023-04-18T00:10:00.147Z,81
2023-04-18T00:10:35.311Z,81
2023-04-18T00:11:07.200Z,81
2023-04-18T00:11:38.988Z,81
2023-04-18T00:12:09.118Z,81
2023-04-18T00:12:43.004Z,81
2023-04-18T00:13:16.466Z,81
2023-04-18T00:13:37.953Z,81
2023-04-18T00:14:00.692Z,81
2023-04-18T00:14:35.091Z,81
2023-04-18T00:15:07.152Z,81
2023-04-18T00:15:39.323Z,81
2023-04-18T00:16:08.980Z,81
2023-04-18T00:16:43.322Z,81
2023-04-18T00:17:15.412Z,81
2023-04-18T00:17:38.784Z,81
2023-04-18T00:18:01.098Z,81
2023-04-18T00:18:34.935Z,81
2023-04-18T00:19:06.997Z,81
2023-04-18T00:19:38.870Z,81
2023-04-18T00:20:09.147Z,81
2023-04-18T00:20:42.970Z,81
2023-04-18T00:21:14.920Z,81
2023-04-18T00:21:37.667Z,81
2023-04-18T00:21:59.933Z,81
2023-04-18T00:22:34.921Z,81
2023-04-18T00:23:08.470Z,81
2023-04-18T00:23:39.238Z,81
2023-04-18T00:24:08.977Z,81
2023-04-18T00:24:42.834Z,81
2023-04-18T00:25:15.217Z,81
2023-04-18T00:25:44.084Z,81
2023-04-18T00:26:01.143Z,81
2023-04-18T00:26:36.353Z,81
2023-04-18T00:27:06.994Z,81
2023-04-18T00:27:38.910Z,81
2023-04-18T00:28:08.957Z,81
2023-04-18T00:28:42.969Z,81
2023-04-18T00:29:15.017Z,81
2023-04-18T00:29:38.105Z,81
2023-04-18T00:30:00.948Z,81
2023-04-18T00:30:35.346Z,81
2023-04-18T00:31:07.228Z,81
2023-04-18T00:31:38.931Z,81
2023-04-18T00:32:09.217Z,81
2023-04-18T00:32:43.040Z,81
2023-04-18T00:33:14.975Z,82
2023-04-18T00:33:37.657Z,81
2023-04-18T00:33:59.943Z,81
2023-04-18T00:34:34.947Z,81
2023-04-18T00:35:06.858Z,81
2023-04-18T00:35:39.217Z,81
2023-04-18T00:36:08.999Z,81
2023-04-18T00:36:42.876Z,81
2023-04-18T00:37:15.074Z,81
2023-04-18T00:37:38.339Z,81
2023-04-18T00:38:00.867Z,81
2023-04-18T00:38:34.928Z,82
2023-04-18T00:39:06.828Z,82
2023-04-18T00:39:39.613Z,82
2023-04-18T00:40:09.215Z,82
2023-04-18T00:40:43.465Z,82
2023-04-18T00:41:14.970Z,82
2023-04-18T00:41:37.821Z,82
2023-04-18T00:42:00.425Z,82
2023-04-18T00:42:34.937Z,82
2023-04-18T00:43:07.418Z,82
2023-04-18T00:43:38.908Z,82
2023-04-18T00:44:09.373Z,82
2023-04-18T00:44:42.926Z,82
2023-04-18T00:45:15.202Z,82
2023-04-18T00:45:37.880Z,82
2023-04-18T00:46:00.352Z,82
2023-04-18T00:46:35.076Z,82
2023-04-18T00:47:06.971Z,82
2023-04-18T00:47:38.824Z,82
2023-04-18T00:48:09.156Z,82
2023-04-18T00:48:43.055Z,82
2023-04-18T00:49:15.441Z,82
2023-04-18T00:49:40.380Z,82
2023-04-18T00:50:02.710Z,82
2023-04-18T00:50:34.978Z,82
2023-04-18T00:51:06.875Z,82
2023-04-18T00:51:39.187Z,82
2023-04-18T00:52:09.127Z,82
2023-04-18T00:52:43.110Z,82
2023-04-18T00:53:14.808Z,82
2023-04-18T00:53:37.326Z,82
2023-04-18T00:53:59.812Z,82
2023-04-18T00:54:35.291Z,82
2023-04-18T00:55:07.530Z,82
2023-04-18T00:55:38.957Z,82
2023-04-18T00:56:09.125Z,82
2023-04-18T00:56:42.821Z,82
2023-04-18T00:57:15.073Z,82
2023-04-18T00:57:37.989Z,82
2023-04-18T00:58:00.303Z,82
2023-04-18T00:58:34.826Z,82
2023-04-18T00:59:06.959Z,82
2023-04-18T00:59:38.819Z,82
2023-04-18T01:00:10.600Z,82
2023-04-18T01:00:43.175Z,82
2023-04-18T01:01:15.578Z,82
2023-04-18T01:01:37.788Z,82
2023-04-18T01:02:00.790Z,82
2023-04-18T01:02:35.197Z,82
2023-04-18T01:03:07.082Z,82
2023-04-18T01:03:39.683Z,82
2023-04-18T01:04:09.335Z,82
2023-04-18T01:04:43.102Z,82
2023-04-18T01:05:14.902Z,82
2023-04-18T01:05:38.147Z,82
2023-04-18T01:06:00.325Z,82
2023-04-18T01:06:34.957Z,82
2023-04-18T01:07:06.810Z,82
2023-04-18T01:07:39.204Z,82
2023-04-18T01:08:09.488Z,82
2023-04-18T01:08:42.956Z,82
2023-04-18T01:09:14.801Z,82
2023-04-18T01:09:37.908Z,82
2023-04-18T01:10:01.783Z,82
2023-04-18T01:10:35.549Z,82
2023-04-18T01:11:06.983Z,82
2023-04-18T01:11:38.881Z,82
2023-04-18T01:12:09.634Z,82
2023-04-18T01:12:46.363Z,82
2023-04-18T01:13:14.977Z,82
2023-04-18T01:13:38.261Z,82
2023-04-18T01:14:00.411Z,82
2023-04-18T01:14:35.171Z,82
2023-04-18T01:15:07.123Z,82
2023-04-18T01:15:38.870Z,82
2023-04-18T01:16:09.028Z,82
2023-04-18T01:16:43.270Z,82
2023-04-18T01:17:21.490Z,82
2023-04-18T01:17:37.967Z,82
2023-04-18T01:18:00.828Z,82
2023-04-18T01:18:34.930Z,82
2023-04-18T01:19:06.958Z,82
2023-04-18T01:19:38.791Z,82
2023-04-18T01:20:09.037Z,82
2023-04-18T01:20:42.947Z,82
2023-04-18T01:21:15.121Z,82
2023-04-18T01:21:37.787Z,82
2023-04-18T01:22:01.167Z,82
2023-04-18T01:22:35.016Z,82
2023-04-18T01:23:06.888Z,82
2023-04-18T01:23:39.047Z,82
2023-04-18T01:24:11.148Z,82
2023-04-18T01:24:42.978Z,82
2023-04-18T01:25:14.797Z,82
2023-04-18T01:25:42.278Z,82
2023-04-18T01:26:01.581Z,82
2023-04-18T01:26:36.442Z,82
2023-04-18T01:27:06.899Z,82
2023-04-18T01:27:39.190Z,82
2023-04-18T01:28:12.485Z,82
2023-04-18T01:28:42.901Z,82
2023-04-18T01:29:15.232Z,82
2023-04-18T01:29:39.071Z,82
2023-04-18T01:30:02.638Z,82
2023-04-18T01:30:34.845Z,82
2023-04-18T01:31:07.377Z,82
2023-04-18T01:31:39.109Z,82
2023-04-18T01:32:09.088Z,82
2023-04-18T01:32:42.867Z,82
2023-04-18T01:33:14.934Z,82
2023-04-18T01:33:37.752Z,82
2023-04-18T01:34:00.027Z,82
2023-04-18T01:34:34.899Z,82
2023-04-18T01:35:06.927Z,82
2023-04-18T01:35:39.472Z,82
2023-04-18T01:36:09.180Z,82
2023-04-18T01:36:42.928Z,82
2023-04-18T01:37:14.903Z,82
2023-04-18T01:37:37.697Z,82
2023-04-18T01:38:00.838Z,82
2023-04-18T01:38:34.885Z,82
2023-04-18T01:39:06.767Z,82
2023-04-18T01:39:38.826Z,82
2023-04-18T01:40:09.170Z,82
2023-04-18T01:40:42.932Z,82
2023-04-18T01:41:14.886Z,82
2023-04-18T01:41:37.946Z,82
2023-04-18T01:42:00.136Z,82
2023-04-18T01:42:37.379Z,82
2023-04-18T01:43:08.449Z,82
2023-04-18T01:43:38.888Z,82
2023-04-18T01:44:09.467Z,82
2023-04-18T01:44:42.891Z,82
2023-04-18T01:45:14.846Z,82
2023-04-18T01:45:37.578Z,82
2023-04-18T01:46:00.025Z,82
2023-04-18T01:46:35.273Z,82
2023-04-18T01:47:07.700Z,82
2023-04-18T01:47:38.800Z,82
2023-04-18T01:48:09.147Z,82
2023-04-18T01:48:42.889Z,82
2023-04-18T01:49:14.882Z,82
2023-04-18T01:49:38.002Z,82
2023-04-18T01:49:59.932Z,82
2023-04-18T01:50:35.001Z,82
2023-04-18T01:51:08.427Z,82
2023-04-18T01:51:39.115Z,82
2023-04-18T01:52:08.967Z,82
2023-04-18T01:52:43.006Z,82
2023-04-18T01:53:14.928Z,82
2023-04-18T01:53:38.415Z,82
2023-04-18T01:54:00.431Z,82
2023-04-18T01:54:35.013Z,82
2023-04-18T01:55:07.342Z,82
2023-04-18T01:55:38.839Z,82
2023-04-18T01:56:09.346Z,82
2023-04-18T01:56:42.948Z,82
2023-04-18T01:57:15.027Z,82
2023-04-18T01:57:37.566Z,82
2023-04-18T01:57:59.885Z,82
2023-04-18T01:58:35.105Z,82
2023-04-18T01:59:08.426Z,82
2023-04-18T01:59:38.986Z,82
2023-04-18T02:00:11.824Z,82
2023-04-18T02:00:43.088Z,82
2023-04-18T02:01:14.961Z,82
2023-04-18T02:01:37.795Z,82
2023-04-18T02:02:00.448Z,82
2023-04-18T02:02:35.190Z,82
2023-04-18T02:03:07.776Z,82
2023-04-18T02:03:41.613Z,82
2023-04-18T02:04:11.065Z,82
2023-04-18T02:04:42.811Z,83
2023-04-18T02:05:15.228Z,83
2023-04-18T02:05:38.696Z,83
2023-04-18T02:06:00.922Z,83
2023-04-18T02:06:35.313Z,83
2023-04-18T02:07:06.942Z,82
2023-04-18T02:07:38.985Z,83
2023-04-18T02:08:11.518Z,83
2023-04-18T02:08:42.933Z,83
2023-04-18T02:09:14.898Z,83
2023-04-18T02:09:38.171Z,83
2023-04-18T02:10:00.852Z,83
2023-04-18T02:10:37.309Z,83
2023-04-18T02:11:07.147Z,83
2023-04-18T02:11:38.788Z,83
2023-04-18T02:12:09.222Z,83
2023-04-18T02:12:42.897Z,83
2023-04-18T02:13:14.887Z,83
2023-04-18T02:13:37.634Z,83
2023-04-18T02:13:59.950Z,83
2023-04-18T02:14:35.201Z,83
2023-04-18T02:15:07.775Z,83
2023-04-18T02:15:38.908Z,83
2023-04-18T02:16:09.990Z,83
2023-04-18T02:16:43.189Z,83
2023-04-18T02:17:15.007Z,83
2023-04-18T02:17:38.165Z,83
2023-04-18T02:18:00.873Z,83
2023-04-18T02:18:34.962Z,83
2023-04-18T02:19:08.041Z,83
2023-04-18T02:19:38.984Z,83
2023-04-18T02:20:11.214Z,83
2023-04-18T02:20:42.853Z,83
2023-04-18T02:21:15.162Z,83
2023-04-18T02:21:37.921Z,83
2023-04-18T02:22:00.335Z,83
2023-04-18T02:22:34.851Z,83
2023-04-18T02:23:08.578Z,83
2023-04-18T02:23:38.850Z,83
2023-04-18T02:24:09.004Z,83
2023-04-18T02:24:42.929Z,83
2023-04-18T02:25:14.947Z,83
2023-04-18T02:25:42.602Z,83
2023-04-18T02:26:18.881Z,83
2023-04-18T02:26:50.937Z,83
2023-04-18T02:27:23.022Z,83
2023-04-18T02:27:45.685Z,83
2023-04-18T02:28:09.180Z,83
2023-04-18T02:28:42.842Z,83
2023-04-18T02:29:15.342Z,83
2023-04-18T02:29:37.697Z,83
2023-04-18T02:30:00.139Z,83
2023-04-18T02:30:34.847Z,83
2023-04-18T02:31:07.097Z,83
2023-04-18T02:31:38.954Z,83
2023-04-18T02:32:09.746Z,83
2023-04-18T02:32:42.806Z,83
2023-04-18T02:33:14.890Z,83
2023-04-18T02:33:37.687Z,83
2023-04-18T02:34:00.185Z,83
2023-04-18T02:34:34.923Z,83
2023-04-18T02:35:06.900Z,83
2023-04-18T02:35:39.351Z,83
2023-04-18T02:36:10.897Z,83
2023-04-18T02:36:42.831Z,83
2023-04-18T02:37:17.437Z,83
2023-04-18T02:37:40.723Z,83
2023-04-18T02:38:13.540Z,83
2023-04-18T02:38:42.481Z,83
2023-04-18T02:39:05.100Z,83
2023-04-18T02:39:38.821Z,83
2023-04-18T02:40:10.861Z,83
2023-04-18T02:40:43.131Z,83
2023-04-18T02:41:14.807Z,83
2023-04-18T02:41:37.976Z,83
2023-04-18T02:41:59.856Z,83
2023-04-18T02:42:34.932Z,83
2023-04-18T02:43:02.285Z,83
2023-04-18T02:43:39.365Z,83
2023-04-18T02:44:11.421Z,83
2023-04-18T02:44:45.496Z,83
2023-04-18T02:45:15.353Z,83
2023-04-18T02:45:38.057Z,83
2023-04-18T02:46:00.879Z,83
2023-04-18T02:46:34.979Z,83
2023-04-18T02:47:06.746Z,83
2023-04-18T02:47:47.419Z,83
2023-04-18T02:48:12.636Z,83
2023-04-18T02:48:43.705Z,83
2023-04-18T02:49:15.403Z,83
2023-04-18T02:49:38.020Z,83
2023-04-18T02:50:00.879Z,83
2023-04-18T02:50:35.459Z,83
2023-04-18T02:51:07.058Z,83
2023-04-18T02:51:38.966Z,83
2023-04-18T02:52:09.517Z,83
2023-04-18T02:52:42.849Z,83
2023-04-18T02:53:16.376Z,83
2023-04-18T02:53:39.006Z,83
2023-04-18T02:54:01.314Z,83
2023-04-18T02:54:35.530Z,83
2023-04-18T02:55:08.468Z,83
2023-04-18T02:55:40.840Z,83
2023-04-18T02:56:12.989Z,83
2023-04-18T02:56:43.098Z,83
2023-04-18T02:57:15.216Z,83
2023-04-18T02:57:37.790Z,83
2023-04-18T02:58:00.739Z,83
2023-04-18T02:58:34.970Z,83
2023-04-18T02:59:06.856Z,83
2023-04-18T02:59:38.765Z,83
2023-04-18T03:00:42.961Z,83
2023-04-18T03:01:18.213Z,83
2023-04-18T03:01:38.451Z,83
2023-04-18T03:02:00.841Z,83
2023-04-18T03:02:36.029Z,83
2023-04-18T03:03:07.268Z,83
2023-04-18T03:03:39.404Z,83
2023-04-18T03:04:12.580Z,83
2023-04-18T03:04:43.284Z,83
2023-04-18T03:05:15.275Z,83
2023-04-18T03:05:38.363Z,83
2023-04-18T03:06:00.251Z,83
2023-04-18T03:06:34.943Z,83
2023-04-18T03:07:07.264Z,83
2023-04-18T03:07:39.103Z,83
2023-04-18T03:08:11.015Z,83
2023-04-18T03:08:43.198Z,83
2023-04-18T03:09:15.887Z,83
2023-04-18T03:09:38.279Z,83
2023-04-18T03:10:01.115Z,83
2023-04-18T03:10:36.544Z,83
2023-04-18T03:11:07.298Z,83
2023-04-18T03:11:39.062Z,83
2023-04-18T03:12:09.572Z,83
2023-04-18T03:12:43.278Z,83
2023-04-18T03:13:15.860Z,83
2023-04-18T03:13:38.499Z,83
2023-04-18T03:13:59.838Z,83
2023-04-18T03:14:34.814Z,83
2023-04-18T03:15:07.263Z,83
2023-04-18T03:15:39.310Z,83
2023-04-18T03:16:09.057Z,83
2023-04-18T03:16:42.955Z,83
2023-04-18T03:17:18.414Z,83
2023-04-18T03:17:37.680Z,83
2023-04-18T03:18:00.500Z,83
2023-04-18T03:18:35.735Z,84
2023-04-18T03:19:07.208Z,83
2023-04-18T03:19:39.373Z,84
2023-04-18T03:20:08.999Z,83
2023-04-18T03:20:43.322Z,84
2023-04-18T03:21:17.096Z,84
2023-04-18T03:21:37.404Z,84
2023-04-18T03:21:59.820Z,84
2023-04-18T03:22:34.911Z,84
2023-04-18T03:23:06.960Z,84
2023-04-18T03:23:39.127Z,84
2023-04-18T03:24:12.284Z,84
2023-04-18T03:24:42.721Z,84
2023-04-18T03:25:15.227Z,84
2023-04-18T03:25:37.808Z,84
2023-04-18T03:26:00.525Z,83
2023-04-18T03:26:35.361Z,83
2023-04-18T03:27:06.874Z,83
2023-04-18T03:27:41.319Z,83
2023-04-18T03:28:09.172Z,83
2023-04-18T03:28:42.965Z,83
2023-04-18T03:29:14.935Z,83
2023-04-18T03:29:38.059Z,83
2023-04-18T03:30:00.324Z,84
2023-04-18T03:30:35.203Z,84
2023-04-18T03:31:08.971Z,84
2023-04-18T03:31:39.393Z,84
2023-04-18T03:32:15.906Z,84
2023-04-18T03:32:43.203Z,84
2023-04-18T03:33:15.129Z,84
2023-04-18T03:33:37.796Z,84
2023-04-18T03:34:00.252Z,84
2023-04-18T03:34:34.821Z,84
2023-04-18T03:35:06.894Z,84
2023-04-18T03:35:39.408Z,84
2023-04-18T03:36:09.645Z,84
2023-04-18T03:36:43.025Z,84
2023-04-18T03:37:14.841Z,84
2023-04-18T03:37:37.541Z,84
2023-04-18T03:38:00.248Z,84
2023-04-18T03:38:35.109Z,84
2023-04-18T03:39:06.971Z,84
2023-04-18T03:39:47.347Z,84
2023-04-18T03:40:10.407Z,84
2023-04-18T03:40:43.556Z,84
2023-04-18T03:41:15.486Z,84
2023-04-18T03:41:38.169Z,84
2023-04-18T03:42:00.526Z,84
2023-04-18T03:42:35.465Z,84
2023-04-18T03:43:07.317Z,84
2023-04-18T03:43:40.611Z,84
2023-04-18T03:44:09.326Z,84
2023-04-18T03:44:45.244Z,84
2023-04-18T03:45:15.324Z,84
2023-04-18T03:45:38.027Z,84
2023-04-18T03:46:01.195Z,84
2023-04-18T03:46:36.117Z,84
2023-04-18T03:47:07.825Z,84
2023-04-18T03:47:41.055Z,84
2023-04-18T03:48:12.509Z,84
2023-04-18T03:48:42.949Z,84
2023-04-18T03:49:15.162Z,84
2023-04-18T03:49:37.929Z,84
2023-04-18T03:50:00.713Z,84
2023-04-18T03:50:35.889Z,84
2023-04-18T03:51:07.696Z,84
2023-04-18T03:51:38.860Z,84
2023-04-18T03:52:09.163Z,84
2023-04-18T03:52:43.552Z,84
2023-04-18T03:53:14.906Z,84
2023-04-18T03:53:37.690Z,84
2023-04-18T03:54:00.163Z,84
2023-04-18T03:54:35.257Z,84
2023-04-18T03:55:12.852Z,84
2023-04-18T03:55:38.717Z,84
2023-04-18T03:56:09.362Z,84
2023-04-18T03:56:43.249Z,84
2023-04-18T03:57:15.200Z,84
2023-04-18T03:57:37.726Z,84
2023-04-18T03:58:00.044Z,84
2023-04-18T03:58:35.059Z,84
2023-04-18T03:59:12.937Z,84
2023-04-18T03:59:34.076Z,84
2023-04-18T04:00:10.243Z,84
2023-04-18T04:00:44.364Z,84
2023-04-18T04:01:16.378Z,84
2023-04-18T04:01:37.770Z,84
2023-04-18T04:02:00.253Z,84
2023-04-18T04:02:36.642Z,84
2023-04-18T04:03:07.094Z,84
2023-04-18T04:03:39.418Z,84
2023-04-18T04:04:09.541Z,84
2023-04-18T04:04:43.010Z,84
2023-04-18T04:05:14.757Z,84
2023-04-18T04:05:38.468Z,84
2023-04-18T04:06:00.516Z,84
2023-04-18T04:06:34.886Z,84
2023-04-18T04:07:06.805Z,84
2023-04-18T04:07:39.044Z,84
2023-04-18T04:08:10.524Z,84
2023-04-18T04:08:43.318Z,84
2023-04-18T04:09:15.144Z,84
2023-04-18T04:09:38.541Z,84
2023-04-18T04:10:01.006Z,84
2023-04-18T04:10:36.226Z,84
2023-04-18T04:11:07.089Z,84
2023-04-18T04:11:38.777Z,84
2023-04-18T04:12:09.215Z,84
2023-04-18T04:12:43.212Z,84
2023-04-18T04:13:14.769Z,84
2023-04-18T04:13:37.554Z,84
2023-04-18T04:14:00.042Z,84
2023-04-18T04:14:34.748Z,84
2023-04-18T04:15:24.738Z,84
2023-04-18T04:15:45.554Z,84
2023-04-18T04:16:08.285Z,84
2023-04-18T04:16:43.243Z,85
2023-04-18T04:17:15.763Z,85
2023-04-18T04:17:38.169Z,85
2023-04-18T04:18:01.599Z,85
2023-04-18T04:18:34.990Z,85
2023-04-18T04:19:08.629Z,85
2023-04-18T04:19:40.765Z,85
2023-04-18T04:20:11.143Z,85
2023-04-18T04:20:43.644Z,85
2023-04-18T04:21:14.834Z,85
2023-04-18T04:21:37.673Z,85
2023-04-18T04:22:00.682Z,85
2023-04-18T04:22:34.876Z,85
2023-04-18T04:23:06.939Z,85
2023-04-18T04:23:39.177Z,85
2023-04-18T04:24:09.326Z,85
2023-04-18T04:24:42.872Z,85
2023-04-18T04:25:15.616Z,85
2023-04-18T04:25:38.389Z,85
2023-04-18T04:26:00.947Z,85
2023-04-18T04:26:37.078Z,85
2023-04-18T04:27:06.915Z,85
2023-04-18T04:27:39.165Z,85
2023-04-18T04:28:09.315Z,85
2023-04-18T04:28:42.869Z,85
2023-04-18T04:29:14.954Z,85
2023-04-18T04:29:37.601Z,85
2023-04-18T04:29:59.922Z,85
2023-04-18T04:30:35.296Z,85
2023-04-18T04:31:07.300Z,85
2023-04-18T04:31:39.014Z,85
2023-04-18T04:32:11.039Z,85
2023-04-18T04:32:43.854Z,85
2023-04-18T04:33:32.123Z,85
2023-04-18T04:34:03.042Z,85
2023-04-18T04:34:35.323Z,85
2023-04-18T04:35:06.915Z,85
2023-04-18T04:35:39.171Z,86
2023-04-18T04:36:09.683Z,86
2023-04-18T04:36:43.118Z,86
2023-04-18T04:37:14.864Z,86
2023-04-18T04:37:37.631Z,86
2023-04-18T04:38:01.772Z,86
2023-04-18T04:38:35.581Z,86
2023-04-18T04:39:09.070Z,86
2023-04-18T04:39:38.953Z,86
2023-04-18T04:40:09.324Z,86
2023-04-18T04:40:43.818Z,86
2023-04-18T04:41:17.258Z,86
2023-04-18T04:41:39.859Z,86
2023-04-18T04:42:02.644Z,86
2023-04-18T04:42:35.389Z,86
2023-04-18T04:43:06.959Z,86
2023-04-18T04:43:39.712Z,86
2023-04-18T04:44:09.244Z,86
2023-04-18T04:44:44.131Z,86
2023-04-18T04:45:14.916Z,86
2023-04-18T04:45:37.671Z,86
2023-04-18T04:46:00.617Z,86
2023-04-18T04:46:37.936Z,86
2023-04-18T04:47:07.819Z,86
2023-04-18T04:47:39.751Z,86
2023-04-18T04:48:10.055Z,86
2023-04-18T04:48:46.093Z,86
2023-04-18T04:49:15.814Z,86
2023-04-18T04:49:39.575Z,86
2023-04-18T04:50:00.983Z,86
2023-04-18T04:50:35.386Z,86
2023-04-18T04:51:07.062Z,86
2023-04-18T04:51:39.237Z,86
2023-04-18T04:52:09.667Z,86
2023-04-18T04:52:43.867Z,86
2023-04-18T04:53:15.237Z,86
2023-04-18T04:53:38.044Z,86
2023-04-18T04:54:00.632Z,86
2023-04-18T04:54:35.849Z,86
2023-04-18T04:55:07.160Z,86
2023-04-18T04:55:39.278Z,86
2023-04-18T04:56:09.593Z,86
2023-04-18T04:56:42.832Z,86
2023-04-18T04:57:20.403Z,86
2023-04-18T04:57:38.837Z,86
2023-04-18T04:58:01.341Z,87
2023-04-18T04:58:37.109Z,87
2023-04-18T04:59:07.532Z,86
2023-04-18T04:59:39.183Z,86
2023-04-18T05:00:10.819Z,86
2023-04-18T05:00:45.999Z,86
2023-04-18T05:01:33.695Z,86
2023-04-18T05:02:09.272Z,86
2023-04-18T05:02:30.976Z,86
2023-04-18T05:03:07.444Z,86
2023-04-18T05:03:39.321Z,86
2023-04-18T05:04:09.809Z,87
2023-04-18T05:04:43.006Z,87
2023-04-18T05:05:15.055Z,87
2023-04-18T05:05:38.442Z,87
2023-04-18T05:06:00.446Z,87
2023-04-18T05:06:34.998Z,87
2023-04-18T05:07:00.872Z,87
2023-04-18T05:07:39.527Z,87
2023-04-18T05:08:09.962Z,87
2023-04-18T05:08:45.274Z,87
2023-04-18T05:09:15.133Z,87
2023-04-18T05:09:37.830Z,87
2023-04-18T05:10:00.940Z,87
2023-04-18T05:10:35.712Z,87
2023-04-18T05:11:08.916Z,87
2023-04-18T05:11:39.743Z,87
2023-04-18T05:12:09.450Z,87
2023-04-18T05:12:42.941Z,87
2023-04-18T05:13:15.010Z,87
2023-04-18T05:13:38.208Z,87
2023-04-18T05:14:00.433Z,87
2023-04-18T05:14:35.844Z,87
2023-04-18T05:15:07.458Z,87
2023-04-18T05:15:39.066Z,87
2023-04-18T05:16:15.855Z,87
2023-04-18T05:16:43.916Z,87
2023-04-18T05:17:17.029Z,87
2023-04-18T05:17:39.210Z,87
2023-04-18T05:18:01.685Z,87
2023-04-18T05:18:36.200Z,87
2023-04-18T05:19:07.384Z,87
2023-04-18T05:19:39.163Z,87
2023-04-18T05:20:10.404Z,87
2023-04-18T05:20:47.537Z,87
2023-04-18T05:21:15.303Z,87
2023-04-18T05:21:38.115Z,87
2023-04-18T05:22:01.163Z,87
2023-04-18T05:22:36.601Z,87
2023-04-18T05:23:07.159Z,87
2023-04-18T05:23:39.578Z,87
2023-04-18T05:24:09.748Z,87
2023-04-18T05:24:42.859Z,87
2023-04-18T05:25:15.377Z,87
2023-04-18T05:25:38.907Z,87
2023-04-18T05:26:00.215Z,87
2023-04-18T05:26:37.987Z,87
2023-04-18T05:27:07.252Z,87
2023-04-18T05:27:40.219Z,87
2023-04-18T05:28:10.592Z,87
2023-04-18T05:28:43.972Z,87
2023-04-18T05:29:15.198Z,87
2023-04-18T05:29:37.805Z,87
2023-04-18T05:30:00.206Z,87
2023-04-18T05:30:37.825Z,87
2023-04-18T05:31:06.955Z,87
2023-04-18T05:31:38.771Z,87
2023-04-18T05:32:11.030Z,87
2023-04-18T05:32:43.081Z,87
2023-04-18T05:33:15.424Z,87
2023-04-18T05:33:38.645Z,87
2023-04-18T05:34:05.104Z,87
2023-04-18T05:34:37.362Z,87
2023-04-18T05:35:07.232Z,87
2023-04-18T05:35:39.598Z,87
2023-04-18T05:36:09.587Z,87
2023-04-18T05:36:43.561Z,87
2023-04-18T05:37:17.645Z,87
2023-04-18T05:37:40.365Z,87
2023-04-18T05:38:03.373Z,87
2023-04-18T05:38:35.121Z,87
2023-04-18T05:39:06.822Z,87
2023-04-18T05:39:39.084Z,87
2023-04-18T05:40:09.668Z,87
2023-04-18T05:40:43.348Z,87
2023-04-18T05:41:15.246Z,87
2023-04-18T05:41:39.720Z,87
2023-04-18T05:42:00.554Z,87
2023-04-18T05:42:35.374Z,87
2023-04-18T05:43:07.615Z,87
2023-04-18T05:43:40.871Z,87
2023-04-18T05:44:09.830Z,87
2023-04-18T05:44:42.868Z,87
2023-04-18T05:45:15.471Z,87
2023-04-18T05:45:45.516Z,87
2023-04-18T05:46:01.998Z,87
2023-04-18T05:46:35.058Z,87
2023-04-18T05:47:07.245Z,87
2023-04-18T05:47:40.634Z,87
2023-04-18T05:48:10.743Z,87
2023-04-18T05:48:43.266Z,87
2023-04-18T05:49:15.570Z,87
2023-04-18T05:49:41.036Z,87
2023-04-18T05:50:01.308Z,87
2023-04-18T05:50:36.051Z,87
2023-04-18T05:51:09.983Z,87
2023-04-18T05:51:41.188Z,87
2023-04-18T05:52:09.830Z,87
2023-04-18T05:52:42.980Z,86
2023-04-18T05:53:14.832Z,86
2023-04-18T05:53:37.786Z,86
2023-04-18T05:54:01.233Z,86
2023-04-18T05:54:34.997Z,86
2023-04-18T05:55:13.126Z,86
2023-04-18T05:55:41.361Z,86
2023-04-18T05:56:10.199Z,86
2023-04-18T05:56:43.904Z,86
2023-04-18T05:57:15.854Z,86
2023-04-18T05:57:38.100Z,86
2023-04-18T05:58:00.738Z,86
2023-04-18T05:58:35.115Z,86
2023-04-18T05:59:07.065Z,86
2023-04-18T05:59:42.571Z,86
2023-04-18T06:00:11.796Z,86
2023-04-18T06:00:45.545Z,86
2023-04-18T06:01:17.258Z,86
2023-04-18T06:01:42.242Z,86
2023-04-18T06:02:02.682Z,86
2023-04-18T06:02:38.686Z,86
2023-04-18T06:03:13.690Z,86
2023-04-18T06:03:39.476Z,86
2023-04-18T06:04:09.618Z,86
2023-04-18T06:04:43.607Z,86
2023-04-18T06:05:15.184Z,86
2023-04-18T06:05:37.992Z,86
2023-04-18T06:06:00.376Z,86
2023-04-18T06:06:34.867Z,86
2023-04-18T06:07:07.372Z,86
2023-04-18T06:07:39.005Z,86
2023-04-18T06:08:10.495Z,86
2023-04-18T06:08:43.459Z,86
2023-04-18T06:09:15.084Z,86
2023-04-18T06:09:37.546Z,86
2023-04-18T06:09:59.926Z,86
2023-04-18T06:10:39.122Z,86
2023-04-18T06:11:07.082Z,86
2023-04-18T06:11:38.732Z,86
2023-04-18T06:12:09.399Z,86
2023-04-18T06:12:43.886Z,86
2023-04-18T06:13:14.934Z,86
2023-04-18T06:13:37.726Z,87
2023-04-18T06:14:00.415Z,87
2023-04-18T06:14:34.868Z,87
2023-04-18T06:15:07.198Z,87
2023-04-18T06:15:38.690Z,87
2023-04-18T06:16:09.499Z,87
2023-04-18T06:16:44.612Z,87
2023-04-18T06:17:17.857Z,87
2023-04-18T06:17:37.753Z,87
2023-04-18T06:18:00.326Z,87
2023-04-18T06:18:34.712Z,87
2023-04-18T06:19:06.833Z,87
2023-04-18T06:19:38.918Z,87
2023-04-18T06:20:09.510Z,87
2023-04-18T06:20:45.193Z,87
2023-04-18T06:21:14.789Z,87
2023-04-18T06:21:37.669Z,87
2023-04-18T06:22:00.071Z,87
2023-04-18T06:22:34.781Z,87
2023-04-18T06:23:07.154Z,87
2023-04-18T06:23:39.225Z,87
2023-04-18T06:24:09.184Z,87
2023-04-18T06:24:42.652Z,87
2023-04-18T06:25:15.002Z,87
2023-04-18T06:25:40.563Z,87
2023-04-18T06:26:02.678Z,87
2023-04-18T06:26:36.384Z,88
2023-04-18T06:27:07.380Z,88
2023-04-18T06:27:38.796Z,88
2023-04-18T06:28:09.194Z,88
2023-04-18T06:28:42.980Z,88
2023-04-18T06:29:14.673Z,88
2023-04-18T06:29:38.074Z,88
2023-04-18T06:29:59.830Z,88
2023-04-18T06:30:34.884Z,88
2023-04-18T06:31:06.854Z,88
2023-04-18T06:31:39.228Z,88
2023-04-18T06:32:09.837Z,88
2023-04-18T06:32:43.042Z,88
2023-04-18T06:33:14.679Z,88
2023-04-18T06:33:37.819Z,88
2023-04-18T06:34:00.356Z,88
2023-04-18T06:34:34.779Z,88
2023-04-18T06:35:06.846Z,88
2023-04-18T06:35:39.145Z,88
2023-04-18T06:36:09.390Z,88
2023-04-18T06:36:42.961Z,88
2023-04-18T06:37:14.941Z,88
2023-04-18T06:37:37.744Z,88
2023-04-18T06:38:00.216Z,88
2023-04-18T06:38:35.171Z,88
2023-04-18T06:39:06.846Z,88
2023-04-18T06:39:38.685Z,88
2023-04-18T06:40:09.575Z,88
2023-04-18T06:40:43.039Z,88
2023-04-18T06:41:15.582Z,88
2023-04-18T06:41:38.408Z,88
2023-04-18T06:42:04.301Z,88
2023-04-18T06:42:35.526Z,88
2023-04-18T06:43:07.225Z,88
2023-04-18T06:43:41.181Z,88
2023-04-18T06:44:09.453Z,88
2023-04-18T06:44:42.971Z,88
2023-04-18T06:45:14.878Z,88
2023-04-18T06:45:37.461Z,88
2023-04-18T06:46:00.755Z,88
2023-04-18T06:46:35.669Z,88
2023-04-18T06:47:07.308Z,88
2023-04-18T06:47:38.886Z,88
2023-04-18T06:48:12.137Z,88
2023-04-18T06:48:43.302Z,88
2023-04-18T06:49:15.322Z,88
2023-04-18T06:49:37.990Z,88
2023-04-18T06:50:00.530Z,88
2023-04-18T06:50:34.896Z,88
2023-04-18T06:51:07.072Z,88
2023-04-18T06:51:44.529Z,88
2023-04-18T06:52:09.430Z,88
2023-04-18T06:52:43.764Z,88
2023-04-18T06:53:14.759Z,88
2023-04-18T06:53:37.821Z,88
2023-04-18T06:54:00.172Z,88
2023-04-18T06:54:35.139Z,88
2023-04-18T06:55:11.602Z,88
2023-04-18T06:55:39.358Z,88
2023-04-18T06:56:10.166Z,88
2023-04-18T06:56:42.933Z,88
2023-04-18T06:57:15.710Z,88
2023-04-18T06:57:38.160Z,88
2023-04-18T06:58:01.054Z,88
2023-04-18T06:58:35.921Z,88
2023-04-18T06:59:06.873Z,88
2023-04-18T06:59:38.763Z,88
2023-04-18T07:00:10.990Z,88
2023-04-18T07:00:43.136Z,88
2023-04-18T07:01:15.613Z,88
2023-04-18T07:01:38.239Z,88
2023-04-18T07:02:01.175Z,89
2023-04-18T07:02:38.255Z,89
2023-04-18T07:03:10.873Z,89
2023-04-18T07:03:39.340Z,89
2023-04-18T07:04:12.639Z,89
2023-04-18T07:04:44.501Z,88
2023-04-18T07:05:17.451Z,88
2023-04-18T07:05:40.499Z,88
2023-04-18T07:06:02.834Z,88
2023-04-18T07:06:35.243Z,88
2023-04-18T07:07:07.079Z,88
2023-04-18T07:07:38.928Z,88
2023-04-18T07:08:11.741Z,89
2023-04-18T07:08:43.064Z,89
2023-04-18T07:09:15.197Z,89